Bent, New Mexico
Current Conditions -  °F | °C
As of 9:55 PM on Friday 19 Dec 2014 (Local Time) from KALM Reporting Station
Clear Clear  
Wind Chill: 27°   Ceiling: Unl
Heat Index: 32°   Visibility: 10mi
Dew Point: 27°   Wind: 5mph
Humidity: 80%   Direction: 20°NNE
Pressure: 30.17"   Gusts: NA
Location:  33.16°N, 105.86°W
Report Text: KALM 200455Z AUTO 02004KT 10SM CLR 00/M03 A3017 RMK AO2
Loading
Personal Weather Stations






























Interactive Weather Map New forecast layout! Learn more

10-Day Weather Forecast

Advertisements
Track Severe Weather on mobile